createdAt,value
2023-02-23T00:01:54.140Z,93913.66
2023-02-23T00:04:20.971Z,93904.03
2023-02-23T00:06:47.751Z,93909.50
2023-02-23T00:09:24.005Z,93902.97
2023-02-23T00:11:55.232Z,93907.13
2023-02-23T00:14:24.624Z,93908.66
2023-02-23T00:16:51.164Z,93912.31
2023-02-23T00:19:17.662Z,93910.50
2023-02-23T00:21:45.383Z,93912.00
2023-02-23T00:24:15.661Z,93906.56
2023-02-23T00:26:42.653Z,93911.94
2023-02-23T00:29:17.077Z,93910.34
2023-02-23T00:31:47.349Z,93899.47
2023-02-23T00:34:16.920Z,93908.69
2023-02-23T00:36:43.448Z,93900.16
2023-02-23T00:39:21.722Z,93894.28
2023-02-23T00:41:49.616Z,93901.22
2023-02-23T00:44:16.337Z,93894.47
2023-02-23T00:46:44.522Z,93899.16
2023-02-23T00:49:13.352Z,93900.22
2023-02-23T00:51:41.353Z,93899.72
2023-02-23T00:54:10.121Z,93905.31
2023-02-23T00:56:36.507Z,93902.56
2023-02-23T00:59:02.988Z,93903.69
2023-02-23T01:01:29.901Z,93906.84
2023-02-23T01:03:56.445Z,93903.75
2023-02-23T01:06:23.645Z,93902.69
2023-02-23T01:08:56.629Z,93906.34
2023-02-23T01:11:27.832Z,93907.88
2023-02-23T01:13:55.720Z,93901.94
2023-02-23T01:16:28.468Z,93908.16
2023-02-23T01:18:56.530Z,93910.00
2023-02-23T01:21:27.766Z,93900.66
2023-02-23T01:23:55.046Z,93902.22
2023-02-23T01:26:23.089Z,93899.63
2023-02-23T01:28:50.952Z,93905.28
2023-02-23T01:31:18.567Z,93899.06
2023-02-23T01:33:45.993Z,93901.34
2023-02-23T01:36:13.242Z,93903.69
2023-02-23T01:38:40.624Z,93893.00
2023-02-23T01:41:08.997Z,93894.84
2023-02-23T01:43:37.039Z,93894.84
2023-02-23T01:46:03.801Z,93894.34
2023-02-23T01:48:37.960Z,93897.78
2023-02-23T01:51:15.014Z,93887.69
2023-02-23T01:54:10.885Z,93888.47
2023-02-23T01:56:45.215Z,93882.50
2023-02-23T01:59:15.189Z,93887.69
2023-02-23T02:01:42.656Z,93885.59
2023-02-23T02:04:20.774Z,93879.63
2023-02-23T02:06:53.361Z,93884.81
2023-02-23T02:09:25.531Z,93880.41
2023-02-23T02:11:54.224Z,93875.28
2023-02-23T02:14:29.192Z,93879.91
2023-02-23T02:17:46.456Z,93878.63
2023-02-23T02:20:33.443Z,93881.50
2023-02-23T02:23:27.642Z,93878.41
2023-02-23T02:26:18.516Z,93866.50
2023-02-23T02:29:26.329Z,93868.59
2023-02-23T02:32:13.655Z,93867.53
2023-02-23T02:35:16.281Z,93871.69
2023-02-23T02:37:50.104Z,93873.25
2023-02-23T02:40:36.298Z,93862.84
2023-02-23T02:43:16.571Z,93874.75
2023-02-23T02:46:06.356Z,93865.22
2023-02-23T02:49:23.199Z,93869.16
2023-02-23T02:52:25.340Z,93862.22
2023-02-23T02:55:09.299Z,93871.84
2023-02-23T02:57:37.258Z,93864.59
2023-02-23T03:00:23.181Z,93864.94
2023-02-23T03:03:08.406Z,93866.00
2023-02-23T03:06:04.264Z,93862.34
2023-02-23T03:08:59.174Z,93871.38
2023-02-23T03:11:59.601Z,93866.00
2023-02-23T03:15:08.246Z,93871.47
2023-02-23T03:18:05.203Z,93866.28
2023-02-23T03:20:53.062Z,93866.75
2023-02-23T03:23:58.200Z,93866.50
2023-02-23T03:26:55.725Z,93865.44
2023-02-23T03:29:51.515Z,93868.03
2023-02-23T03:32:55.957Z,93863.63
2023-02-23T03:36:00.593Z,93872.16
2023-02-23T03:39:29.022Z,93868.78
2023-02-23T03:42:15.771Z,93867.19
2023-02-23T03:45:04.063Z,93862.00
2023-02-23T03:47:54.844Z,93864.53
2023-02-23T03:50:47.075Z,93855.72
2023-02-23T03:53:35.861Z,93861.31
2023-02-23T03:56:22.320Z,93867.75
2023-02-23T03:59:11.806Z,93866.38
2023-02-23T04:01:57.621Z,93868.91
2023-02-23T04:04:46.131Z,93870.91
2023-02-23T04:07:35.065Z,93870.91
2023-02-23T04:10:20.930Z,93870.91
2023-02-23T04:13:12.796Z,93864.97
2023-02-23T04:15:44.184Z,93866.81
2023-02-23T04:18:14.766Z,93873.50
2023-02-23T04:20:41.294Z,93868.31
2023-02-23T04:23:07.769Z,93868.31
2023-02-23T04:25:34.271Z,93867.56
2023-02-23T04:28:00.725Z,93876.63
2023-02-23T04:30:28.354Z,93863.91
2023-02-23T04:32:55.469Z,93867.84
2023-02-23T04:35:22.466Z,93869.63
2023-02-23T04:37:48.914Z,93870.09
2023-02-23T04:40:15.411Z,93863.34
2023-02-23T04:42:41.897Z,93873.66
2023-02-23T04:45:08.822Z,93865.16
2023-02-23T04:47:35.398Z,93874.91
2023-02-23T04:50:01.980Z,93870.50
2023-02-23T04:52:28.427Z,93875.41
2023-02-23T04:54:54.851Z,93869.16
2023-02-23T04:57:21.291Z,93864.75
2023-02-23T04:59:47.719Z,93871.97
2023-02-23T05:02:14.196Z,93861.88
2023-02-23T05:04:40.642Z,93866.97
2023-02-23T05:07:07.138Z,93866.69
2023-02-23T05:09:33.768Z,93866.47
2023-02-23T05:12:00.238Z,93866.69
2023-02-23T05:14:27.075Z,93865.16
2023-02-23T05:16:53.520Z,93870.06
2023-02-23T05:19:19.942Z,93863.81
2023-02-23T05:21:46.681Z,93865.34
2023-02-23T05:24:13.124Z,93868.72
2023-02-23T05:26:39.878Z,93870.28
2023-02-23T05:29:06.595Z,93872.88
2023-02-23T05:31:33.077Z,93873.91
2023-02-23T05:33:59.528Z,93869.19
2023-02-23T05:36:26.210Z,93864.78
2023-02-23T05:38:52.721Z,93869.50
2023-02-23T05:41:22.976Z,93870.53
2023-02-23T05:43:53.853Z,93864.31
2023-02-23T05:46:24.034Z,93865.09
2023-02-23T05:48:51.292Z,93864.31
2023-02-23T05:51:18.689Z,93865.84
2023-02-23T05:53:46.654Z,93863.75
2023-02-23T05:56:20.647Z,93865.25
2023-02-23T05:58:51.719Z,93860.06
2023-02-23T06:01:19.578Z,93867.13
2023-02-23T06:03:47.199Z,93866.81
2023-02-23T06:06:14.499Z,93866.81
2023-02-23T06:08:42.074Z,93861.72
2023-02-23T06:11:09.188Z,93872.31
2023-02-23T06:13:35.665Z,93869.97
2023-02-23T06:16:02.113Z,93879.31
2023-02-23T06:18:29.656Z,93879.88
2023-02-23T06:21:00.374Z,93874.94
2023-02-23T06:23:28.035Z,93885.34
2023-02-23T06:25:54.480Z,93871.09
2023-02-23T06:28:20.883Z,93872.66
2023-02-23T06:30:48.663Z,93885.63
2023-02-23T06:33:15.141Z,93889.28
2023-02-23T06:35:42.609Z,93894.47
2023-02-23T06:38:09.084Z,93897.06
2023-02-23T06:40:35.496Z,93894.19
2023-02-23T06:43:03.484Z,93894.19
2023-02-23T06:45:29.922Z,93894.97
2023-02-23T06:47:56.720Z,93898.06
2023-02-23T06:50:23.108Z,93898.06
2023-02-23T06:52:49.808Z,93901.41
2023-02-23T06:55:16.897Z,93904.03
2023-02-23T06:57:43.937Z,93902.69
2023-02-23T07:00:14.998Z,93909.91
2023-02-23T07:02:42.018Z,93898.53
2023-02-23T07:05:08.928Z,93918.16
2023-02-23T07:07:35.413Z,93915.56
2023-02-23T07:10:01.801Z,93910.88
2023-02-23T07:12:28.276Z,93913.19
2023-02-23T07:14:54.656Z,93913.94
2023-02-23T07:17:21.064Z,93913.19
2023-02-23T07:19:48.009Z,93913.47
2023-02-23T07:22:14.438Z,93917.41
2023-02-23T07:24:40.845Z,93917.69
2023-02-23T07:27:07.261Z,93917.69
2023-02-23T07:29:33.723Z,93917.69
2023-02-23T07:32:00.451Z,93914.09
2023-02-23T07:34:27.032Z,93921.63
2023-02-23T07:36:53.489Z,93921.88
2023-02-23T07:39:20.356Z,93933.63
2023-02-23T07:41:46.755Z,93921.97
2023-02-23T07:44:19.826Z,93928.22
2023-02-23T07:46:46.464Z,93925.34
2023-02-23T07:49:13.904Z,93921.41
2023-02-23T07:51:40.901Z,93919.22
2023-02-23T07:54:07.369Z,93926.91
2023-02-23T07:56:33.936Z,93921.94
2023-02-23T07:59:00.338Z,93925.22
2023-02-23T08:01:26.876Z,93922.38
2023-02-23T08:03:53.425Z,93921.03
2023-02-23T08:06:20.029Z,93920.94
2023-02-23T08:08:46.745Z,93922.50
2023-02-23T08:11:13.497Z,93934.13
2023-02-23T08:13:40.427Z,93926.41
2023-02-23T08:16:07.280Z,93934.13
2023-02-23T08:18:34.319Z,93935.88
2023-02-23T08:21:02.655Z,93933.19
2023-02-23T08:23:31.135Z,93940.41
2023-02-23T08:25:57.994Z,93937.25
2023-02-23T08:28:25.134Z,93926.84
2023-02-23T08:30:51.787Z,93942.84
2023-02-23T08:33:18.440Z,93930.91
2023-02-23T08:35:45.319Z,93941.13
2023-02-23T08:38:11.943Z,93948.06
2023-02-23T08:40:38.374Z,93941.81
2023-02-23T08:43:04.748Z,93949.31
2023-02-23T08:45:31.145Z,93946.25
2023-02-23T08:47:57.534Z,93950.66
2023-02-23T08:50:25.835Z,93953.25
2023-02-23T08:52:53.932Z,93953.25
2023-02-23T08:55:21.663Z,93948.44
2023-02-23T08:57:48.130Z,93953.09
2023-02-23T09:00:16.653Z,93949.97
2023-02-23T09:02:45.334Z,93949.50
2023-02-23T09:05:11.821Z,93951.63
2023-02-23T09:07:40.021Z,93949.59
2023-02-23T09:10:07.171Z,93954.22
2023-02-23T09:12:33.597Z,93952.09
2023-02-23T09:15:00.225Z,93951.81
2023-02-23T09:17:26.725Z,93955.16
2023-02-23T09:19:53.349Z,93956.50
2023-02-23T09:22:19.840Z,93959.63
2023-02-23T09:24:46.236Z,93958.38
2023-02-23T09:27:12.983Z,93956.81
2023-02-23T09:29:42.342Z,93949.03
2023-02-23T09:32:09.394Z,93959.63
2023-02-23T09:34:37.547Z,93964.44
2023-02-23T09:37:05.202Z,93959.91
2023-02-23T09:39:38.216Z,93958.00
2023-02-23T09:42:20.054Z,93967.56
2023-02-23T09:45:12.207Z,93961.97
2023-02-23T09:48:00.161Z,93960.81
2023-02-23T09:50:29.745Z,93965.44
2023-02-23T09:53:04.971Z,93961.97
2023-02-23T09:55:32.121Z,93956.56
2023-02-23T09:58:08.007Z,93956.97
2023-02-23T10:00:44.706Z,93962.19
2023-02-23T10:03:30.521Z,93967.38
2023-02-23T10:06:04.154Z,93974.72
2023-02-23T10:08:41.318Z,93974.72
2023-02-23T10:11:35.818Z,93964.78
2023-02-23T10:14:18.719Z,93972.00
2023-02-23T10:16:58.805Z,93973.53
2023-02-23T10:19:35.748Z,93973.75
2023-02-23T10:22:09.191Z,93965.66
2023-02-23T10:25:02.667Z,93971.25
2023-02-23T10:27:37.610Z,93974.72
2023-02-23T10:30:04.873Z,93966.22
2023-02-23T10:32:41.440Z,93975.41
2023-02-23T10:35:15.123Z,93968.94
2023-02-23T10:37:41.557Z,93963.53
2023-02-23T10:40:15.958Z,93956.47
2023-02-23T10:42:42.362Z,93967.03
2023-02-23T10:45:18.646Z,93963.72
2023-02-23T10:47:46.288Z,93967.63
2023-02-23T10:50:14.746Z,93960.03
2023-02-23T10:52:47.876Z,93965.78
2023-02-23T10:55:27.579Z,93958.97
2023-02-23T10:58:18.802Z,93958.00
2023-02-23T11:01:05.591Z,93952.06
2023-02-23T11:03:43.154Z,93952.88
2023-02-23T11:06:36.296Z,93951.75
2023-02-23T11:09:33.069Z,93956.06
2023-02-23T11:12:22.489Z,93951.00
2023-02-23T11:14:58.898Z,93951.66
2023-02-23T11:17:37.477Z,93948.44
2023-02-23T11:20:25.962Z,93948.25
2023-02-23T11:22:52.624Z,93947.34
2023-02-23T11:25:28.428Z,93942.13
2023-02-23T11:27:57.021Z,93943.38
2023-02-23T11:30:29.406Z,93940.31
2023-02-23T11:32:58.778Z,93937.75
2023-02-23T11:35:29.557Z,93939.91
2023-02-23T11:37:56.369Z,93930.56
2023-02-23T11:40:29.358Z,93931.66
2023-02-23T11:43:05.010Z,93932.56
2023-02-23T11:45:37.870Z,93922.22
2023-02-23T11:48:05.159Z,93929.59
2023-02-23T11:50:36.546Z,93927.44
2023-02-23T11:53:13.680Z,93928.34
2023-02-23T11:55:47.238Z,93922.50
2023-02-23T11:58:35.665Z,93921.25
2023-02-23T12:01:12.226Z,93924.66
2023-02-23T12:03:47.580Z,93921.00
2023-02-23T12:06:29.920Z,93914.91
2023-02-23T12:09:26.313Z,93908.28
2023-02-23T12:12:02.943Z,93911.06
2023-02-23T12:14:49.704Z,93914.91
2023-02-23T12:17:23.927Z,93915.84
2023-02-23T12:19:58.146Z,93912.00
2023-02-23T12:22:32.961Z,93910.78
2023-02-23T12:25:04.868Z,93902.78
2023-02-23T12:27:38.739Z,93906.63
2023-02-23T12:30:27.412Z,93905.84
2023-02-23T12:33:00.306Z,93902.31
2023-02-23T12:35:55.466Z,93895.69
2023-02-23T12:38:33.131Z,93901.41
2023-02-23T12:41:06.579Z,93894.94
2023-02-23T12:43:49.123Z,93897.84
2023-02-23T12:46:23.368Z,93895.69
2023-02-23T12:49:00.488Z,93896.34
2023-02-23T12:51:32.848Z,93894.78
2023-02-23T12:53:59.344Z,93887.25
2023-02-23T12:56:42.405Z,93886.34
2023-02-23T12:59:13.401Z,93887.72
2023-02-23T13:01:51.436Z,93885.84
2023-02-23T13:04:45.803Z,93886.94
2023-02-23T13:07:22.765Z,93876.00
2023-02-23T13:10:09.708Z,93873.38
2023-02-23T13:12:41.979Z,93869.22
2023-02-23T13:15:23.659Z,93867.09
2023-02-23T13:18:01.494Z,93872.53
2023-02-23T13:20:43.570Z,93875.75
2023-02-23T13:23:32.155Z,93872.59
2023-02-23T13:26:10.668Z,93875.53
2023-02-23T13:28:52.608Z,93878.38
2023-02-23T13:31:36.940Z,93875.28
2023-02-23T13:34:09.322Z,93872.53
2023-02-23T13:36:36.755Z,93868.53
2023-02-23T13:39:21.525Z,93872.22
2023-02-23T13:42:20.572Z,93870.41
2023-02-23T13:45:25.660Z,93873.38
2023-02-23T13:48:13.572Z,93871.19
2023-02-23T13:51:04.976Z,93869.34
2023-02-23T13:53:43.529Z,93870.09
2023-02-23T13:56:23.726Z,93854.84
2023-02-23T13:58:57.616Z,93864.75
2023-02-23T14:01:33.316Z,93857.97
2023-02-23T14:04:03.873Z,93861.75
2023-02-23T14:06:34.324Z,93860.88
2023-02-23T14:09:08.914Z,93856.34
2023-02-23T14:11:49.592Z,93852.22
2023-02-23T14:14:31.640Z,93851.28
2023-02-23T14:17:31.182Z,93850.66
2023-02-23T14:20:29.259Z,93846.06
2023-02-23T14:23:21.151Z,93847.81
2023-02-23T14:26:16.062Z,93847.16
2023-02-23T14:29:07.608Z,93845.28
2023-02-23T14:31:35.501Z,93848.91
2023-02-23T14:34:08.013Z,93842.59
2023-02-23T14:36:43.083Z,93843.94
2023-02-23T14:39:17.874Z,93849.00
2023-02-23T14:41:54.515Z,93845.25
2023-02-23T14:44:32.204Z,93835.72
2023-02-23T14:47:03.226Z,93836.81
2023-02-23T14:49:35.544Z,93842.16
2023-02-23T14:52:29.431Z,93837.34
2023-02-23T14:55:11.399Z,93837.13
2023-02-23T14:57:40.080Z,93836.66
2023-02-23T15:00:23.189Z,93837.22
2023-02-23T15:03:01.180Z,93838.09
2023-02-23T15:05:51.276Z,93842.44
2023-02-23T15:08:22.952Z,93844.97
2023-02-23T15:10:52.938Z,93840.06
2023-02-23T15:13:31.602Z,93848.72
2023-02-23T15:16:03.590Z,93845.22
2023-02-23T15:19:26.402Z,93845.41
2023-02-23T15:21:58.145Z,93856.81
2023-02-23T15:24:42.518Z,93852.03
2023-02-23T15:27:24.821Z,93848.19
2023-02-23T15:29:51.393Z,93848.03
2023-02-23T15:32:26.164Z,93844.03
2023-02-23T15:34:55.418Z,93851.56
2023-02-23T15:37:36.888Z,93844.34
2023-02-23T15:40:06.540Z,93851.25
2023-02-23T15:42:45.037Z,93844.53
2023-02-23T15:45:30.098Z,93854.50
2023-02-23T15:48:00.127Z,93858.66
2023-02-23T15:50:37.017Z,93857.09
2023-02-23T15:53:13.722Z,93857.28
2023-02-23T15:55:43.230Z,93860.66
2023-02-23T15:58:21.156Z,93861.28
2023-02-23T16:00:56.565Z,93868.50
2023-02-23T16:03:45.884Z,93860.38
2023-02-23T16:06:24.037Z,93867.44
2023-02-23T16:09:25.901Z,93865.88
2023-02-23T16:12:04.919Z,93863.28
2023-02-23T16:14:55.607Z,93867.41
2023-02-23T16:17:45.017Z,93866.03
2023-02-23T16:20:20.176Z,93871.09
2023-02-23T16:22:47.410Z,93860.22
2023-02-23T16:25:18.593Z,93861.59
2023-02-23T16:27:47.153Z,93855.56
2023-02-23T16:30:16.907Z,93860.94
2023-02-23T16:32:44.903Z,93859.22
2023-02-23T16:35:20.055Z,93861.66
2023-02-23T16:38:00.744Z,93861.97
2023-02-23T16:40:27.369Z,93867.31
2023-02-23T16:42:58.960Z,93874.03
2023-02-23T16:45:26.804Z,93870.63
2023-02-23T16:47:53.519Z,93874.41
2023-02-23T16:50:24.807Z,93871.94
2023-02-23T16:52:52.817Z,93876.25
2023-02-23T16:55:25.428Z,93877.44
2023-02-23T16:57:54.785Z,93880.00
2023-02-23T17:00:28.597Z,93880.41
2023-02-23T17:02:57.343Z,93886.06
2023-02-23T17:05:24.550Z,93884.34
2023-02-23T17:07:51.886Z,93882.66
2023-02-23T17:10:25.055Z,93884.41
2023-02-23T17:12:53.897Z,93889.28
2023-02-23T17:15:21.872Z,93886.34
2023-02-23T17:17:48.365Z,93885.38
2023-02-23T17:20:21.646Z,93885.78
2023-02-23T17:22:49.653Z,93886.50
2023-02-23T17:25:17.058Z,93890.78
2023-02-23T17:27:43.623Z,93893.66
2023-02-23T17:30:11.744Z,93892.72
2023-02-23T17:32:38.630Z,93891.47
2023-02-23T17:35:05.791Z,93889.47
2023-02-23T17:37:32.541Z,93882.69
2023-02-23T17:39:58.988Z,93882.13
2023-02-23T17:42:33.772Z,93878.16
2023-02-23T17:45:02.055Z,93886.44
2023-02-23T17:47:33.748Z,93884.59
2023-02-23T17:50:01.319Z,93878.63
2023-02-23T17:52:28.467Z,93876.78
2023-02-23T17:54:55.544Z,93887.22
2023-02-23T17:57:23.066Z,93885.19
2023-02-23T17:59:50.393Z,93880.56
2023-02-23T18:02:18.705Z,93880.88
2023-02-23T18:04:45.352Z,93879.63
2023-02-23T18:07:11.785Z,93883.88
2023-02-23T18:09:38.583Z,93882.94
2023-02-23T18:12:05.793Z,93886.44
2023-02-23T18:14:32.891Z,93887.75
2023-02-23T18:16:59.913Z,93886.81
2023-02-23T18:19:27.318Z,93886.16
2023-02-23T18:21:56.934Z,93886.75
2023-02-23T18:24:24.105Z,93893.84
2023-02-23T18:26:51.233Z,93899.94
2023-02-23T18:29:20.497Z,93901.09
2023-02-23T18:31:49.629Z,93905.53
2023-02-23T18:34:16.216Z,93898.78
2023-02-23T18:36:42.744Z,93900.63
2023-02-23T18:39:10.620Z,93897.25
2023-02-23T18:41:37.145Z,93903.97
2023-02-23T18:44:06.767Z,93900.31
2023-02-23T18:46:33.282Z,93895.13
2023-02-23T18:48:59.901Z,93898.03
2023-02-23T18:51:26.840Z,93897.25
2023-02-23T18:53:53.792Z,93897.25
2023-02-23T18:56:28.053Z,93898.78
2023-02-23T18:58:59.692Z,93898.19
2023-02-23T19:01:29.109Z,93903.91
2023-02-23T19:03:58.425Z,93900.69
2023-02-23T19:06:25.570Z,93890.78
2023-02-23T19:08:54.260Z,93889.16
2023-02-23T19:11:26.961Z,93890.69
2023-02-23T19:13:55.133Z,93889.16
2023-02-23T19:16:21.764Z,93881.53
2023-02-23T19:18:48.292Z,93882.31
2023-02-23T19:21:15.441Z,93883.84
2023-02-23T19:23:41.936Z,93877.38
2023-02-23T19:26:08.346Z,93881.84
2023-02-23T19:28:34.748Z,93883.66
2023-02-23T19:31:06.536Z,93889.66
2023-02-23T19:33:34.319Z,93885.50
2023-02-23T19:36:05.224Z,93881.34
2023-02-23T19:38:31.698Z,93877.97
2023-02-23T19:40:58.167Z,93881.66
2023-02-23T19:43:25.388Z,93891.84
2023-02-23T19:45:52.189Z,93877.13
2023-02-23T19:48:18.682Z,93878.38
2023-02-23T19:50:49.410Z,93884.34
2023-02-23T19:53:16.257Z,93885.88
2023-02-23T19:55:42.996Z,93885.88
2023-02-23T19:58:09.767Z,93880.66
2023-02-23T20:00:36.199Z,93875.47
2023-02-23T20:03:06.297Z,93875.88
2023-02-23T20:05:41.161Z,93888.19
2023-02-23T20:08:09.110Z,93886.09
2023-02-23T20:10:35.651Z,93886.78
2023-02-23T20:13:02.181Z,93881.16
2023-02-23T20:15:28.593Z,93878.09
2023-02-23T20:17:54.985Z,93885.91
2023-02-23T20:20:25.393Z,93880.69
2023-02-23T20:22:53.405Z,93879.06
2023-02-23T20:25:21.036Z,93881.84
2023-02-23T20:27:48.814Z,93885.72
2023-02-23T20:30:15.323Z,93885.72
2023-02-23T20:32:42.001Z,93877.63
2023-02-23T20:35:11.157Z,93879.91
2023-02-23T20:37:37.736Z,93881.00
2023-02-23T20:40:15.078Z,93882.63
2023-02-23T20:42:43.134Z,93884.75
2023-02-23T20:45:09.853Z,93878.78
2023-02-23T20:47:36.644Z,93880.59
2023-02-23T20:50:04.844Z,93873.69
2023-02-23T20:52:31.970Z,93875.41
2023-02-23T20:54:58.369Z,93871.28
2023-02-23T20:57:26.752Z,93867.22
2023-02-23T20:59:53.208Z,93875.97
2023-02-23T21:02:19.738Z,93881.47
2023-02-23T21:04:46.265Z,93869.53
2023-02-23T21:07:13.516Z,93865.09
2023-02-23T21:09:40.677Z,93875.50
2023-02-23T21:12:10.181Z,93862.22
2023-02-23T21:14:36.619Z,93868.28
2023-02-23T21:17:03.075Z,93873.78
2023-02-23T21:19:30.840Z,93861.06
2023-02-23T21:21:58.454Z,93863.66
2023-02-23T21:24:26.006Z,93859.53
2023-02-23T21:26:52.420Z,93862.91
2023-02-23T21:29:23.586Z,93853.34
2023-02-23T21:31:50.081Z,93863.19
2023-02-23T21:34:19.835Z,93865.31
2023-02-23T21:36:46.767Z,93854.91
2023-02-23T21:39:13.252Z,93865.78
2023-02-23T21:41:39.868Z,93848.34
2023-02-23T21:44:07.912Z,93853.75
2023-02-23T21:46:34.913Z,93850.06
2023-02-23T21:49:07.068Z,93838.91
2023-02-23T21:51:34.621Z,93841.22
2023-02-23T21:54:01.039Z,93839.09
2023-02-23T21:56:27.573Z,93839.09
2023-02-23T21:58:55.460Z,93839.88
2023-02-23T22:01:30.977Z,93845.38
2023-02-23T22:03:57.740Z,93837.66
2023-02-23T22:06:27.384Z,93839.78
2023-02-23T22:08:54.392Z,93841.91
2023-02-23T22:11:26.705Z,93838.06
2023-02-23T22:14:01.409Z,93840.19
2023-02-23T22:16:31.259Z,93838.91
2023-02-23T22:18:58.415Z,93838.63
2023-02-23T22:21:24.903Z,93840.94
2023-02-23T22:23:53.292Z,93836.50
2023-02-23T22:26:20.352Z,93839.13
2023-02-23T22:28:46.984Z,93839.88
2023-02-23T22:31:14.158Z,93836.81
2023-02-23T22:33:42.998Z,93831.13
2023-02-23T22:36:13.122Z,93834.50
2023-02-23T22:38:41.676Z,93828.03
2023-02-23T22:41:14.595Z,93829.13
2023-02-23T22:43:46.077Z,93826.03
2023-02-23T22:46:14.758Z,93826.22
2023-02-23T22:48:46.584Z,93837.97
2023-02-23T22:51:14.608Z,93832.09
2023-02-23T22:53:41.658Z,93835.25
2023-02-23T22:56:08.876Z,93829.28
2023-02-23T22:58:36.175Z,93828.53
2023-02-23T23:01:04.827Z,93828.53
2023-02-23T23:03:37.522Z,93823.31
2023-02-23T23:06:06.148Z,93821.03
2023-02-23T23:08:37.048Z,93817.94
2023-02-23T23:11:09.549Z,93821.28
2023-02-23T23:13:38.286Z,93820.03
2023-02-23T23:16:29.294Z,93819.31
2023-02-23T23:19:04.237Z,93811.78
2023-02-23T23:21:33.662Z,93811.31
2023-02-23T23:24:05.539Z,93808.50
2023-02-23T23:26:34.302Z,93801.19
2023-02-23T23:29:04.690Z,93805.63
2023-02-23T23:31:34.712Z,93792.91
2023-02-23T23:34:04.342Z,93790.63
2023-02-23T23:36:33.596Z,93797.63
2023-02-23T23:39:01.115Z,93793.50
2023-02-23T23:41:30.301Z,93785.53
2023-02-23T23:43:58.947Z,93787.91
2023-02-23T23:46:28.081Z,93792.13
2023-02-23T23:48:55.873Z,93777.91
2023-02-23T23:51:27.484Z,93780.81
2023-02-23T23:53:55.071Z,93766.94
2023-02-23T23:56:21.488Z,93775.09
2023-02-23T23:58:48.962Z,93766.56
